Etusivu
METAR-TAF:

METAR-TAF

Lentoasemat :

Cloquet/Carlton County Airport

Cloquet, Minnesota, Yhdysvallat

Leveyspiiri: 46-42N, Pituuspiiri: 092-30W, korkeus merenpinnasta: 390 m

Tämänhetkinen sää

Tämä raportti tehtiin 16 minuuttia sitten, kello 18.35 UTC
Tuuli 11 kn idästä puuskistuen 17 kn:hen
Lämpötila 7°C
Kosteus 93%
Ilmanpaine 1012 hPa
Näkyvyys: 3.2 km
Pilvistä 400 ft:n korkeudessa
utua

METAR: KCOQ 241835Z AUTO 09011G17KT 2SM BR OVC004 07/06 A2988 RMK AO2

Aika: 13:51 (18:51 UTC)


TAF: puuttuu

Säähavainnot ja -ennusteet yli 4000 lentoasemalta (METAR- ja TAF-raportit).

Käytössä olevat sääasemat on merkitty karttaan keltaisilla ja punaisilla pisteillä.

Aseta hiiri pisteen päälle nähdäksesi sääaseman nimen.

Klikkaa sitten nähdäksesi säähavainnot ja -ennusteet.

Kartan vaihtaminen: klikkaa mustalla rastilla varustettuja vihreitä pisteitä, niin voit zoomata sisään; viivalla varustettua vihreää pistettä, niin voit zoomata ulos tai vihreitä nuolia, niin pääset viereisille kartoille.


METAR-TAF: